createdAt,value
2022-12-13T11:04:33.691Z,26.07
2022-12-13T11:05:38.910Z,24.83
2022-12-13T11:06:47.239Z,22.57
2022-12-13T11:07:50.295Z,25.94
2022-12-13T11:08:54.995Z,24.53
2022-12-13T11:11:46.938Z,26.98
2022-12-13T11:12:51.798Z,27.62
2022-12-13T11:14:01.381Z,25.51
2022-12-13T11:15:07.136Z,26.82
2022-12-13T11:16:20.109Z,28.76
2022-12-13T11:17:27.152Z,22.68
2022-12-13T11:18:35.716Z,21.41
2022-12-13T11:19:49.399Z,17.74
2022-12-13T11:21:01.973Z,16.77
2022-12-13T11:22:07.964Z,17.74
2022-12-13T11:23:22.619Z,17.03
2022-12-13T11:24:35.577Z,14.73
2022-12-13T11:25:45.382Z,15.66
2022-12-13T11:26:54.859Z,15.07
2022-12-13T11:28:28.018Z,15.43
2022-12-13T11:29:43.801Z,16.93
2022-12-13T11:30:55.714Z,16.86
2022-12-13T11:32:26.644Z,16.61
2022-12-13T11:33:53.644Z,13.26
2022-12-13T11:35:33.424Z,17.44
2022-12-13T11:36:41.567Z,16.32
2022-12-13T11:37:50.850Z,18.47
2022-12-13T11:39:00.074Z,15.87
2022-12-13T11:40:13.415Z,17.06
2022-12-13T11:41:31.513Z,21.60
2022-12-13T11:42:42.877Z,20.30
2022-12-13T11:43:51.611Z,19.91
2022-12-13T11:45:05.040Z,18.28
2022-12-13T11:46:19.281Z,19.37
2022-12-13T11:47:26.643Z,20.22
2022-12-13T11:48:46.375Z,18.13
2022-12-13T11:49:53.993Z,20.32
2022-12-13T11:51:00.257Z,19.61
2022-12-13T11:53:44.260Z,18.69
2022-12-13T11:54:54.867Z,17.64
2022-12-13T11:56:10.272Z,22.66
2022-12-13T11:57:28.106Z,18.10
2022-12-13T11:59:14.555Z,18.83
2022-12-13T12:01:17.850Z,20.25
2022-12-13T12:02:25.255Z,22.68
2022-12-13T12:03:37.453Z,25.07
2022-12-13T12:05:00.863Z,22.39
2022-12-13T12:07:48.313Z,22.36
2022-12-13T12:08:48.166Z,21.36
2022-12-13T12:10:01.891Z,25.11
2022-12-13T12:11:14.519Z,22.00
2022-12-13T12:12:38.830Z,25.05
2022-12-13T12:13:51.256Z,28.22
2022-12-13T12:15:15.618Z,27.34
2022-12-13T12:16:36.628Z,26.38
2022-12-13T12:17:42.126Z,26.29
2022-12-13T12:18:48.528Z,25.67
2022-12-13T12:19:58.303Z,25.98
2022-12-13T12:22:12.351Z,25.72
2022-12-13T12:22:53.740Z,24.73
2022-12-13T12:24:09.495Z,27.04
2022-12-13T12:25:18.648Z,25.09
2022-12-13T12:26:25.624Z,25.92
2022-12-13T12:27:44.807Z,26.12
2022-12-13T12:29:01.309Z,25.43
2022-12-13T12:30:30.664Z,26.57
2022-12-13T12:31:50.400Z,24.37
2022-12-13T12:33:14.330Z,26.03
2022-12-13T12:34:28.055Z,27.92
2022-12-13T12:35:54.216Z,27.75
2022-12-13T12:37:26.368Z,28.74
2022-12-13T12:38:53.513Z,28.31
2022-12-13T12:40:00.651Z,30.01
2022-12-13T12:41:45.649Z,29.75
2022-12-13T12:44:35.008Z,28.43
2022-12-13T12:46:08.421Z,30.43
2022-12-13T12:48:38.593Z,32.07
2022-12-13T12:49:24.855Z,31.23
2022-12-13T12:50:34.155Z,29.71
2022-12-13T12:51:58.134Z,30.06
2022-12-13T12:54:41.845Z,30.67
2022-12-13T12:56:04.690Z,31.36
2022-12-13T12:57:28.695Z,32.01
2022-12-13T12:58:51.305Z,30.82
2022-12-13T13:00:04.538Z,31.71
2022-12-13T13:01:21.188Z,30.38
2022-12-13T13:02:27.733Z,28.91
2022-12-13T13:03:36.642Z,29.88
2022-12-13T13:04:45.592Z,27.04
2022-12-13T13:06:02.956Z,25.85
2022-12-13T13:07:22.485Z,25.23
2022-12-13T13:08:32.219Z,24.48
2022-12-13T13:09:37.530Z,24.04
2022-12-13T13:10:49.883Z,22.81
2022-12-13T13:11:50.427Z,24.46
2022-12-13T13:13:12.717Z,25.62
2022-12-13T13:14:09.658Z,24.23
2022-12-13T13:15:32.681Z,22.78
2022-12-13T13:16:40.373Z,22.68
2022-12-13T13:17:46.079Z,22.36
2022-12-13T13:18:52.891Z,23.77
2022-12-13T13:20:22.916Z,25.79
2022-12-13T13:21:35.667Z,23.17
2022-12-13T13:22:43.246Z,21.11
2022-12-13T13:23:45.511Z,21.44
2022-12-13T13:25:09.693Z,21.77
2022-12-13T13:26:27.983Z,23.48
2022-12-13T13:27:27.866Z,21.31
2022-12-13T13:53:50.114Z,23.09
2022-12-13T13:55:05.714Z,23.60
2022-12-13T13:56:34.604Z,25.02
2022-12-13T13:58:10.744Z,24.57
2022-12-13T14:25:18.165Z,22.52
2022-12-13T14:26:31.188Z,25.88
2022-12-13T14:27:40.484Z,23.83
2022-12-13T14:28:56.363Z,21.80
2022-12-13T14:30:09.625Z,23.76
2022-12-13T14:31:26.407Z,24.39
2022-12-13T14:32:33.051Z,23.53
2022-12-13T14:33:37.500Z,23.96
2022-12-13T14:34:42.319Z,24.75
2022-12-13T14:35:52.356Z,23.84
2022-12-13T14:37:02.649Z,22.79
2022-12-13T14:38:09.369Z,22.94
2022-12-13T14:39:25.233Z,22.71
2022-12-13T14:40:37.277Z,22.67
2022-12-13T14:41:49.148Z,22.89
2022-12-13T14:42:58.675Z,19.77
2022-12-13T14:44:16.670Z,21.61
2022-12-13T14:45:26.735Z,23.33
2022-12-13T14:46:30.692Z,21.40
2022-12-13T14:47:34.587Z,24.25
2022-12-13T14:48:47.557Z,21.35
2022-12-13T14:49:54.655Z,23.33
2022-12-13T14:50:58.433Z,21.65
2022-12-13T14:52:05.352Z,22.45
2022-12-13T14:53:12.506Z,22.03
2022-12-13T14:54:26.247Z,22.82
2022-12-13T14:55:34.425Z,21.92
2022-12-13T14:56:42.852Z,21.77
2022-12-13T14:57:49.117Z,22.29
2022-12-13T14:58:59.836Z,21.19
2022-12-13T15:00:21.987Z,21.03
2022-12-13T15:01:31.233Z,23.06
2022-12-13T15:02:34.739Z,22.73
2022-12-13T15:03:38.502Z,21.42
2022-12-13T15:04:41.912Z,21.35
2022-12-13T15:05:50.910Z,21.35
2022-12-13T15:07:17.304Z,21.12
2022-12-13T15:08:20.307Z,21.89
2022-12-13T15:09:24.816Z,22.16
2022-12-13T15:10:36.473Z,21.56
2022-12-13T15:11:42.129Z,19.90
2022-12-13T15:12:46.524Z,21.79
2022-12-13T15:13:53.619Z,24.24
2022-12-13T15:15:00.562Z,20.01
2022-12-13T15:16:16.595Z,22.12
2022-12-13T15:17:33.266Z,21.01
2022-12-13T15:18:38.090Z,22.69
2022-12-13T15:19:49.047Z,22.07
2022-12-13T15:22:13.036Z,21.04
2022-12-13T15:23:34.641Z,21.87
2022-12-13T15:24:48.569Z,21.39
2022-12-13T15:26:09.265Z,22.62
2022-12-13T15:27:14.574Z,20.66
2022-12-13T15:28:21.610Z,20.56
2022-12-13T15:29:25.811Z,20.85
2022-12-13T15:30:32.144Z,20.72
2022-12-13T15:31:36.043Z,20.51
2022-12-13T15:32:43.502Z,20.47
2022-12-13T15:33:48.051Z,21.08
2022-12-13T15:34:56.358Z,19.64
2022-12-13T15:36:22.133Z,21.98
2022-12-13T15:37:30.462Z,20.63
2022-12-13T15:38:34.080Z,22.35
2022-12-13T15:39:42.012Z,19.36
2022-12-13T15:40:50.041Z,21.07
2022-12-13T15:41:55.412Z,20.29
2022-12-13T15:42:59.676Z,21.67
2022-12-13T15:45:36.346Z,20.56
2022-12-13T15:46:38.591Z,20.87
2022-12-13T15:47:45.891Z,22.76
2022-12-13T15:48:49.736Z,20.28
2022-12-13T15:49:59.481Z,21.49
2022-12-13T15:51:29.908Z,20.44
2022-12-13T15:52:32.578Z,20.43
2022-12-13T15:53:38.189Z,22.07
2022-12-13T15:54:42.622Z,21.34
2022-12-13T15:55:46.144Z,20.62
2022-12-13T15:57:14.359Z,22.12
2022-12-13T15:58:24.768Z,20.25
2022-12-13T15:59:32.029Z,20.16
2022-12-13T16:00:36.224Z,20.59
2022-12-13T16:01:39.852Z,21.89
2022-12-13T16:04:25.738Z,22.57
2022-12-13T16:05:35.617Z,20.67
2022-12-13T16:06:40.066Z,22.16
2022-12-13T16:07:43.468Z,19.90
2022-12-13T16:08:51.496Z,22.25
2022-12-13T16:09:55.570Z,22.88
2022-12-13T16:11:00.307Z,20.74
2022-12-13T16:12:07.835Z,21.18
2022-12-13T16:13:17.545Z,23.42
2022-12-13T16:14:37.930Z,22.86
2022-12-13T16:15:50.722Z,22.48
2022-12-13T16:16:56.075Z,22.56
2022-12-13T16:18:10.231Z,20.98
2022-12-13T16:19:17.705Z,20.33
2022-12-13T16:20:23.781Z,22.94
2022-12-13T16:21:27.718Z,23.40
2022-12-13T16:22:30.839Z,22.38
2022-12-13T16:23:36.178Z,22.59
2022-12-13T16:24:39.541Z,22.67
2022-12-13T16:25:44.927Z,23.16
2022-12-13T16:26:49.514Z,22.92
2022-12-13T16:27:53.759Z,22.31
2022-12-13T16:29:00.983Z,24.11
2022-12-13T16:30:29.056Z,22.23
2022-12-13T16:31:33.972Z,21.02
2022-12-13T16:32:55.941Z,22.63
2022-12-13T16:33:44.325Z,24.27
2022-12-13T16:34:47.862Z,23.41
2022-12-13T16:35:52.359Z,20.59
2022-12-13T16:36:57.078Z,20.97
2022-12-13T16:38:03.640Z,22.74
2022-12-13T16:39:09.363Z,20.53
2022-12-13T16:40:25.985Z,19.68
2022-12-13T16:41:30.022Z,19.59
2022-12-13T16:42:33.752Z,19.13
2022-12-13T16:45:11.346Z,20.23
2022-12-13T16:46:00.238Z,20.22
2022-12-13T16:47:21.944Z,21.41
2022-12-13T16:48:19.257Z,19.42
2022-12-13T16:49:25.786Z,20.19
2022-12-13T16:50:29.358Z,20.18
2022-12-13T16:51:31.851Z,18.34
2022-12-13T16:52:37.097Z,19.18
2022-12-13T16:53:39.769Z,21.01
2022-12-13T16:54:42.729Z,19.14
2022-12-13T16:55:58.605Z,20.58
2022-12-13T16:56:55.401Z,19.61
2022-12-13T16:58:05.217Z,18.61
2022-12-13T16:59:10.939Z,20.72
2022-12-13T17:00:19.817Z,22.89
2022-12-13T17:01:24.186Z,21.52
2022-12-13T17:02:27.009Z,20.19
2022-12-13T17:03:31.888Z,18.26
2022-12-13T17:04:35.355Z,18.75
2022-12-13T17:05:42.380Z,20.39
2022-12-13T17:06:45.680Z,19.17
2022-12-13T17:07:50.924Z,20.59
2022-12-13T17:08:54.481Z,18.11
2022-12-13T17:09:58.244Z,19.86
2022-12-13T17:11:00.887Z,19.66
2022-12-13T17:12:05.624Z,21.78
2022-12-13T17:14:21.745Z,18.30
2022-12-13T17:15:28.422Z,17.66
2022-12-13T17:16:32.818Z,18.89
2022-12-13T17:17:45.155Z,15.89
2022-12-13T17:18:49.228Z,18.73
2022-12-13T17:19:51.837Z,16.12
2022-12-13T17:20:58.455Z,15.16
2022-12-13T17:22:00.830Z,18.24
2022-12-13T17:23:06.903Z,14.12
2022-12-13T17:24:10.502Z,13.52
2022-12-13T17:25:15.202Z,14.24
2022-12-13T17:26:17.912Z,16.43
2022-12-13T17:27:21.309Z,16.78
2022-12-13T17:28:24.736Z,16.07
2022-12-13T17:29:28.613Z,16.05
2022-12-13T17:30:34.283Z,15.56
2022-12-13T17:31:40.121Z,16.06
2022-12-13T17:32:42.859Z,16.99
2022-12-13T17:33:47.430Z,14.89
2022-12-13T17:34:54.261Z,16.01
2022-12-13T17:35:57.671Z,15.17
2022-12-13T17:37:05.653Z,15.19
2022-12-13T17:38:06.612Z,14.73
2022-12-13T17:39:10.600Z,15.92
2022-12-13T17:40:14.404Z,16.27
2022-12-13T17:41:19.899Z,15.88
2022-12-13T17:42:24.344Z,16.67
2022-12-13T17:43:34.757Z,14.12
2022-12-13T17:44:35.180Z,16.78
2022-12-13T17:45:38.620Z,14.69
2022-12-13T17:46:44.057Z,14.58
2022-12-13T17:47:49.977Z,12.98
2022-12-13T17:48:52.484Z,14.56
2022-12-13T17:49:55.873Z,14.17
2022-12-13T17:50:59.371Z,14.83
2022-12-13T17:52:02.274Z,14.37
2022-12-13T17:53:09.550Z,13.93
2022-12-13T17:54:14.660Z,15.62
2022-12-13T17:55:18.815Z,14.55
2022-12-13T17:56:23.966Z,14.82
2022-12-13T17:57:28.610Z,15.48
2022-12-13T17:58:34.865Z,15.08
2022-12-13T17:59:43.041Z,14.92
2022-12-13T18:00:47.134Z,13.87
2022-12-13T18:01:52.075Z,13.65
2022-12-13T18:02:55.955Z,12.11
2022-12-13T18:03:59.872Z,13.99
2022-12-13T18:05:02.307Z,12.78
2022-12-13T18:06:06.531Z,11.94
2022-12-13T18:07:13.399Z,12.55
2022-12-13T18:08:17.925Z,13.73
2022-12-13T18:09:22.598Z,13.94
2022-12-13T18:10:29.824Z,14.01
2022-12-13T18:11:35.215Z,13.89
2022-12-13T18:12:41.764Z,12.29
2022-12-13T18:13:45.272Z,13.58
2022-12-13T18:14:50.469Z,13.67
2022-12-13T18:15:54.698Z,13.14
2022-12-13T18:16:58.825Z,13.67
2022-12-13T18:18:11.320Z,12.07
2022-12-13T18:44:01.322Z,15.26
2022-12-13T18:45:07.068Z,13.72
2022-12-13T18:46:15.643Z,13.28
2022-12-13T18:47:21.267Z,14.10
2022-12-13T18:48:25.196Z,12.54
2022-12-13T18:49:28.956Z,13.02
2022-12-13T18:50:34.703Z,13.82
2022-12-13T18:51:38.277Z,12.00
2022-12-13T18:52:43.214Z,12.43
2022-12-13T18:53:46.671Z,12.36
2022-12-13T18:54:54.212Z,11.84
2022-12-13T18:56:05.103Z,14.00
2022-12-13T18:57:09.366Z,14.01
2022-12-13T18:58:14.080Z,12.29
2022-12-13T18:59:16.626Z,12.31
2022-12-13T19:00:21.067Z,11.79
2022-12-13T19:01:27.543Z,11.89
2022-12-13T19:02:34.703Z,11.78
2022-12-13T19:03:37.761Z,12.48
2022-12-13T19:04:41.310Z,12.44
2022-12-13T19:05:45.690Z,12.61
2022-12-13T19:06:49.091Z,12.27
2022-12-13T19:07:54.044Z,12.17
2022-12-13T19:08:58.015Z,12.64
2022-12-13T19:10:02.088Z,12.13
2022-12-13T19:11:05.499Z,11.18
2022-12-13T19:12:08.939Z,12.28
2022-12-13T19:14:27.269Z,12.82
2022-12-13T19:15:30.998Z,11.57
2022-12-13T19:16:34.648Z,10.79
2022-12-13T19:17:37.956Z,11.19
2022-12-13T19:18:40.812Z,13.47
2022-12-13T19:19:48.643Z,12.49
2022-12-13T19:20:55.161Z,10.97
2022-12-13T19:21:57.976Z,12.31
2022-12-13T19:23:01.440Z,12.71
2022-12-13T19:24:10.715Z,12.39
2022-12-13T19:25:13.537Z,9.93
2022-12-13T19:26:17.197Z,11.67
2022-12-13T19:27:19.799Z,9.61
2022-12-13T19:28:25.654Z,8.49
2022-12-13T19:29:29.426Z,10.27
2022-12-13T19:30:33.984Z,8.39
2022-12-13T19:31:38.024Z,8.20
2022-12-13T19:32:43.306Z,7.61
2022-12-13T19:33:49.189Z,7.24
2022-12-13T19:34:52.839Z,8.51
2022-12-13T19:35:56.220Z,7.59
2022-12-13T19:37:04.507Z,6.49
2022-12-13T19:38:04.726Z,6.93
2022-12-13T19:39:08.264Z,7.06
2022-12-13T19:40:12.560Z,6.33
2022-12-13T19:41:18.424Z,6.55
2022-12-13T19:42:21.024Z,5.74
2022-12-13T19:43:26.024Z,6.15
2022-12-13T19:44:30.284Z,5.80
2022-12-13T19:45:34.244Z,5.56
2022-12-13T19:46:37.943Z,6.04
2022-12-13T19:47:46.744Z,5.68
2022-12-13T19:48:51.240Z,4.96
2022-12-13T19:49:54.195Z,6.23
2022-12-13T19:51:03.711Z,5.63
2022-12-13T19:52:07.563Z,5.36
2022-12-13T19:53:11.229Z,4.88
2022-12-13T19:54:15.943Z,5.21
2022-12-13T19:55:20.268Z,5.47
2022-12-13T19:56:27.166Z,4.97
2022-12-13T19:57:33.651Z,6.03
2022-12-13T19:58:38.754Z,5.04
2022-12-13T19:59:42.235Z,4.97
2022-12-13T20:00:44.834Z,5.71
2022-12-13T20:01:49.268Z,6.79
2022-12-13T20:02:52.566Z,5.34
2022-12-13T20:03:55.093Z,5.67
2022-12-13T20:04:58.439Z,5.31
2022-12-13T20:06:03.351Z,5.58
2022-12-13T20:07:07.480Z,5.63
2022-12-13T20:08:13.345Z,6.38
2022-12-13T20:09:17.242Z,6.02
2022-12-13T20:10:20.719Z,6.48
2022-12-13T20:11:25.516Z,6.71
2022-12-13T20:12:30.013Z,5.99
2022-12-13T20:13:37.741Z,6.12
2022-12-13T20:14:41.951Z,6.43
2022-12-13T20:15:49.085Z,5.78
2022-12-13T20:16:52.503Z,5.88
2022-12-13T20:17:56.611Z,6.05
2022-12-13T20:19:02.438Z,6.34
2022-12-13T20:20:09.777Z,7.58
2022-12-13T20:21:17.391Z,7.14
2022-12-13T20:22:20.920Z,7.22
2022-12-13T20:23:25.010Z,7.02
2022-12-13T20:24:27.985Z,5.84
2022-12-13T20:25:31.985Z,7.27
2022-12-13T20:26:35.593Z,5.85
2022-12-13T20:27:40.562Z,7.29
2022-12-13T20:28:45.019Z,6.34
2022-12-13T20:29:48.790Z,8.59
2022-12-13T20:30:53.212Z,7.83
2022-12-13T20:31:57.280Z,6.96
2022-12-13T20:33:02.989Z,6.85
2022-12-13T20:34:09.442Z,8.00
2022-12-13T20:35:12.825Z,7.91
2022-12-13T20:36:27.329Z,7.08
2022-12-13T20:37:26.931Z,6.59
2022-12-13T20:38:30.889Z,7.11
2022-12-13T20:39:36.639Z,7.84
2022-12-13T20:40:40.157Z,6.93
2022-12-13T20:41:43.671Z,6.78
2022-12-13T20:42:46.046Z,6.88
2022-12-13T20:43:53.824Z,7.71
2022-12-13T20:45:00.392Z,8.35
2022-12-13T20:46:13.911Z,8.44
2022-12-13T20:47:17.375Z,9.11
2022-12-13T20:48:22.068Z,10.14
2022-12-13T20:49:28.354Z,10.31
2022-12-13T20:50:31.991Z,9.17
2022-12-13T20:51:37.419Z,11.31
2022-12-13T20:52:40.165Z,8.88
2022-12-13T20:53:46.008Z,10.11
2022-12-13T20:54:49.609Z,8.03
2022-12-13T20:55:58.559Z,8.94
2022-12-13T20:57:04.143Z,8.10
2022-12-13T20:58:09.489Z,9.75
2022-12-13T21:00:32.681Z,8.12
2022-12-13T21:01:41.631Z,8.92
2022-12-13T21:02:44.670Z,8.69
2022-12-13T21:03:48.107Z,9.91
2022-12-13T21:04:51.472Z,9.01
2022-12-13T21:05:55.238Z,9.59
2022-12-13T21:06:58.921Z,8.10
2022-12-13T21:08:20.137Z,8.68
2022-12-13T21:09:24.472Z,7.43
2022-12-13T21:10:27.563Z,7.85
2022-12-13T21:11:36.060Z,8.54
2022-12-13T21:12:40.446Z,8.48
2022-12-13T21:13:43.732Z,7.71
2022-12-13T21:14:49.154Z,9.59
2022-12-13T21:15:52.832Z,7.31
2022-12-13T21:17:00.494Z,8.01
2022-12-13T21:18:04.174Z,8.02
2022-12-13T21:19:08.860Z,8.03
2022-12-13T21:20:14.111Z,7.26
2022-12-13T21:21:19.460Z,9.03
2022-12-13T21:22:23.295Z,8.71
2022-12-13T21:23:27.026Z,8.25
2022-12-13T21:24:32.183Z,7.29
2022-12-13T21:25:35.736Z,7.52
2022-12-13T21:26:38.460Z,8.69
2022-12-13T21:27:42.313Z,7.53
2022-12-13T21:28:46.204Z,8.76
2022-12-13T21:29:48.575Z,8.49
2022-12-13T21:31:08.346Z,7.66
2022-12-13T21:32:11.964Z,8.06
2022-12-13T21:33:16.794Z,7.91
2022-12-13T21:34:22.672Z,8.31
2022-12-13T21:35:26.196Z,10.82
2022-12-13T21:36:30.957Z,8.61
2022-12-13T21:37:34.383Z,9.06
2022-12-13T21:38:38.184Z,10.80
2022-12-13T21:39:42.511Z,8.94
2022-12-13T21:40:50.806Z,9.79
2022-12-13T21:41:54.387Z,8.48
2022-12-13T21:42:59.429Z,8.31
2022-12-13T21:44:02.903Z,8.24
2022-12-13T21:45:09.217Z,9.49
2022-12-13T21:46:16.013Z,8.74
2022-12-13T21:47:19.742Z,8.66
2022-12-13T21:48:24.221Z,9.52
2022-12-13T21:49:27.550Z,10.45
2022-12-13T21:50:35.686Z,9.14
2022-12-13T21:51:43.238Z,9.74
2022-12-13T21:52:49.536Z,10.57
2022-12-13T21:53:51.546Z,9.28
2022-12-13T21:55:15.224Z,9.27
2022-12-13T21:56:19.668Z,9.29
2022-12-13T21:57:41.944Z,9.06
2022-12-13T21:59:06.238Z,8.98
2022-12-13T22:00:11.568Z,9.28
2022-12-13T22:01:17.371Z,9.37
2022-12-13T22:02:21.804Z,8.18
2022-12-13T22:03:24.304Z,10.87
2022-12-13T22:04:28.616Z,9.81
2022-12-13T22:05:35.186Z,8.53
2022-12-13T22:06:38.772Z,8.32
2022-12-13T22:07:43.500Z,8.39
2022-12-13T22:08:51.123Z,8.89
2022-12-13T22:09:55.764Z,7.87
2022-12-13T22:11:00.087Z,9.39
2022-12-13T22:12:08.618Z,9.82
2022-12-13T22:13:13.573Z,10.76
2022-12-13T22:14:19.441Z,8.51
2022-12-13T22:15:23.442Z,10.44
2022-12-13T22:16:29.150Z,9.47
2022-12-13T22:17:36.148Z,12.45
2022-12-13T22:18:40.290Z,9.19
2022-12-13T22:19:42.677Z,8.86
2022-12-13T22:20:46.070Z,9.07
2022-12-13T22:21:51.064Z,10.34
2022-12-13T22:22:54.926Z,9.01
2022-12-13T22:23:57.842Z,8.61
2022-12-13T22:25:01.585Z,9.68
2022-12-13T22:26:08.575Z,9.37
2022-12-13T22:27:12.283Z,7.73
2022-12-13T22:28:17.295Z,9.19
2022-12-13T22:29:21.929Z,11.27
2022-12-13T22:30:25.510Z,10.31
2022-12-13T22:31:29.960Z,9.99
2022-12-13T22:32:33.784Z,8.83
2022-12-13T22:33:37.355Z,7.95
2022-12-13T22:34:41.876Z,7.82
2022-12-13T22:35:45.427Z,9.60
2022-12-13T22:36:48.188Z,9.84
2022-12-13T22:37:52.538Z,9.10
2022-12-13T22:38:56.068Z,11.15
2022-12-13T22:39:59.469Z,9.76
2022-12-13T22:41:05.105Z,9.11
2022-12-13T22:42:08.625Z,9.90
2022-12-13T22:43:17.381Z,9.08
2022-12-13T22:44:19.900Z,8.86
2022-12-13T22:45:23.579Z,9.01
2022-12-13T22:46:29.428Z,9.22
2022-12-13T22:47:33.960Z,9.82
2022-12-13T22:48:37.055Z,9.27
2022-12-13T22:49:40.242Z,9.13
2022-12-13T22:50:47.052Z,10.10
2022-12-13T22:51:50.718Z,9.64
2022-12-13T22:52:54.378Z,9.63
2022-12-13T22:53:57.935Z,9.35
2022-12-13T22:55:02.541Z,9.22
2022-12-13T22:56:13.942Z,9.37
2022-12-13T22:57:17.279Z,9.56
2022-12-13T22:58:21.023Z,9.04
2022-12-13T22:59:24.757Z,10.59
2022-12-13T23:00:28.828Z,9.79
2022-12-13T23:01:33.911Z,10.07
2022-12-13T23:02:36.693Z,11.86
2022-12-13T23:03:42.063Z,9.59
2022-12-13T23:04:45.358Z,9.71
2022-12-13T23:05:47.703Z,9.88
2022-12-13T23:06:50.795Z,10.45
2022-12-13T23:07:58.500Z,10.74
2022-12-13T23:09:06.595Z,9.06
2022-12-13T23:10:13.921Z,9.91
2022-12-13T23:11:37.095Z,11.09
2022-12-13T23:12:58.777Z,10.32
2022-12-13T23:14:04.595Z,10.51
2022-12-13T23:15:09.622Z,11.26
2022-12-13T23:16:14.181Z,12.44
2022-12-13T23:17:22.101Z,12.28
2022-12-13T23:18:25.921Z,11.83
2022-12-13T23:19:41.439Z,13.08
2022-12-13T23:20:36.936Z,10.43
2022-12-13T23:21:42.403Z,11.76
2022-12-13T23:22:47.722Z,10.88
2022-12-13T23:23:52.721Z,12.06
2022-12-13T23:24:56.494Z,11.07
2022-12-13T23:26:09.461Z,11.70
2022-12-13T23:27:12.963Z,13.59
2022-12-13T23:28:16.664Z,12.36
2022-12-13T23:29:19.352Z,13.07
2022-12-13T23:30:21.827Z,11.82
2022-12-13T23:31:28.746Z,12.09
2022-12-13T23:32:32.621Z,12.53
2022-12-13T23:33:40.338Z,13.32
2022-12-13T23:34:44.589Z,12.24
